createdAt,value
2023-03-07T00:00:39.746Z,1.69
2023-03-07T00:03:08.105Z,1.69
2023-03-07T00:05:36.824Z,1.68
2023-03-07T00:08:05.078Z,1.67
2023-03-07T00:10:33.281Z,1.64
2023-03-07T00:13:04.409Z,1.62
2023-03-07T00:15:32.823Z,1.60
2023-03-07T00:18:01.943Z,1.59
2023-03-07T00:20:30.238Z,1.60
2023-03-07T00:22:58.462Z,1.62
2023-03-07T00:25:26.778Z,1.62
2023-03-07T00:27:55.103Z,1.66
2023-03-07T00:30:26.016Z,1.68
2023-03-07T00:32:54.703Z,1.70
2023-03-07T00:35:23.252Z,1.73
2023-03-07T00:37:52.721Z,1.76
2023-03-07T00:40:20.943Z,1.80
2023-03-07T00:42:49.998Z,1.83
2023-03-07T00:45:23.160Z,1.86
2023-03-07T00:47:51.560Z,1.90
2023-03-07T00:50:19.790Z,1.96
2023-03-07T00:52:48.522Z,2.02
2023-03-07T00:55:17.416Z,2.07
2023-03-07T00:57:47.451Z,2.10
2023-03-07T01:00:16.108Z,2.10
2023-03-07T01:02:44.397Z,2.12
2023-03-07T01:05:13.492Z,2.15
2023-03-07T01:07:42.510Z,2.18
2023-03-07T01:10:12.662Z,2.22
2023-03-07T01:12:56.977Z,2.23
2023-03-07T01:15:26.056Z,2.23
2023-03-07T01:17:54.661Z,2.22
2023-03-07T01:20:23.050Z,2.19
2023-03-07T01:22:51.561Z,2.20
2023-03-07T01:25:20.092Z,2.21
2023-03-07T01:27:48.763Z,2.19
2023-03-07T01:30:17.171Z,2.17
2023-03-07T01:32:59.260Z,2.16
2023-03-07T01:35:28.691Z,2.15
2023-03-07T01:37:58.630Z,2.12
2023-03-07T01:40:27.590Z,2.11
2023-03-07T01:42:55.947Z,2.09
2023-03-07T01:45:34.439Z,2.10
2023-03-07T01:48:03.170Z,2.11
2023-03-07T01:50:32.066Z,2.12
2023-03-07T01:53:00.403Z,2.12
2023-03-07T01:55:32.389Z,2.08
2023-03-07T01:58:09.160Z,2.07
2023-03-07T02:00:39.119Z,2.08
2023-03-07T02:03:13.273Z,2.07
2023-03-07T02:05:47.803Z,2.08
2023-03-07T02:08:16.132Z,2.10
2023-03-07T02:10:45.531Z,2.11
2023-03-07T02:13:13.813Z,2.10
2023-03-07T02:15:50.506Z,2.07
2023-03-07T02:18:20.632Z,2.07
2023-03-07T02:20:51.388Z,2.10
2023-03-07T02:23:29.606Z,2.12
2023-03-07T02:26:13.176Z,2.14
2023-03-07T02:28:42.932Z,2.16
2023-03-07T02:31:11.831Z,2.15
2023-03-07T02:33:41.940Z,2.11
2023-03-07T02:36:13.510Z,2.09
2023-03-07T02:38:50.817Z,2.08
2023-03-07T02:41:26.782Z,2.05
2023-03-07T02:43:55.545Z,2.01
2023-03-07T02:46:24.039Z,1.97
2023-03-07T02:48:52.288Z,1.93
2023-03-07T02:51:23.868Z,1.89
2023-03-07T02:53:52.401Z,1.83
2023-03-07T02:56:20.871Z,1.77
2023-03-07T02:58:49.160Z,1.75
2023-03-07T03:01:18.025Z,1.75
2023-03-07T03:03:46.496Z,1.73
2023-03-07T03:06:15.598Z,1.71
2023-03-07T03:08:44.427Z,1.68
2023-03-07T03:11:12.870Z,1.64
2023-03-07T03:13:41.361Z,1.61
2023-03-07T03:16:10.196Z,1.58
2023-03-07T03:18:39.049Z,1.57
2023-03-07T03:21:08.393Z,1.56
2023-03-07T03:23:36.862Z,1.57
2023-03-07T03:26:07.868Z,1.59
2023-03-07T03:28:37.361Z,1.57
2023-03-07T03:31:10.781Z,1.56
2023-03-07T03:33:41.400Z,1.54
2023-03-07T03:36:10.813Z,1.51
2023-03-07T03:38:39.540Z,1.47
2023-03-07T03:41:11.019Z,1.43
2023-03-07T03:43:41.140Z,1.41
2023-03-07T03:46:09.554Z,1.44
2023-03-07T03:48:38.428Z,1.48
2023-03-07T03:51:14.729Z,1.52
2023-03-07T03:53:43.511Z,1.55
2023-03-07T03:56:12.596Z,1.58
2023-03-07T03:58:40.985Z,1.62
2023-03-07T04:01:10.738Z,1.66
2023-03-07T04:03:40.000Z,1.67
2023-03-07T04:06:09.103Z,1.67
2023-03-07T04:08:41.711Z,1.67
2023-03-07T04:11:10.000Z,1.67
2023-03-07T04:13:39.890Z,1.67
2023-03-07T04:16:08.254Z,1.67
2023-03-07T04:18:40.246Z,1.67
2023-03-07T04:21:08.895Z,1.67
2023-03-07T04:23:42.220Z,1.69
2023-03-07T04:26:12.468Z,1.69
2023-03-07T04:28:49.416Z,1.71
2023-03-07T04:31:44.517Z,1.73
2023-03-07T04:34:13.289Z,1.77
2023-03-07T04:36:43.033Z,1.81
2023-03-07T04:39:13.928Z,1.84
2023-03-07T04:41:43.866Z,1.86
2023-03-07T04:44:18.884Z,1.89
2023-03-07T04:46:47.121Z,1.95
2023-03-07T04:49:16.004Z,2.01
2023-03-07T04:51:44.331Z,2.07
2023-03-07T04:54:15.314Z,2.12
2023-03-07T04:56:44.472Z,2.18
2023-03-07T04:59:13.530Z,2.23
2023-03-07T05:01:42.533Z,2.28
2023-03-07T05:04:10.968Z,2.35
2023-03-07T05:06:44.421Z,2.40
2023-03-07T05:09:13.492Z,2.44
2023-03-07T05:11:42.634Z,2.46
2023-03-07T05:14:10.931Z,2.47
2023-03-07T05:16:39.976Z,2.49
2023-03-07T05:19:08.872Z,2.53
2023-03-07T05:21:57.788Z,2.56
2023-03-07T05:24:26.309Z,2.56
2023-03-07T05:26:55.270Z,2.57
2023-03-07T05:29:23.641Z,2.56
2023-03-07T05:31:51.929Z,2.57
2023-03-07T05:34:20.617Z,2.58
2023-03-07T05:36:55.102Z,2.63
2023-03-07T05:39:24.330Z,2.67
2023-03-07T05:41:52.732Z,2.69
2023-03-07T05:44:21.842Z,2.73
2023-03-07T05:46:50.294Z,2.76
2023-03-07T05:49:19.751Z,2.81
2023-03-07T05:51:48.255Z,2.87
2023-03-07T05:54:16.816Z,2.96
2023-03-07T05:56:50.103Z,3.06
2023-03-07T05:59:18.599Z,3.17
2023-03-07T06:01:50.297Z,3.30
2023-03-07T06:04:18.720Z,3.43
2023-03-07T06:06:47.408Z,3.58
2023-03-07T06:09:16.060Z,3.78
2023-03-07T06:11:45.146Z,3.99
2023-03-07T06:14:13.616Z,4.18
2023-03-07T06:16:42.119Z,4.32
2023-03-07T06:19:10.521Z,4.42
2023-03-07T06:21:39.012Z,4.55
2023-03-07T06:24:07.649Z,4.68
2023-03-07T06:26:35.865Z,4.87
2023-03-07T06:29:04.171Z,5.09
2023-03-07T06:31:32.755Z,5.21
2023-03-07T06:34:01.122Z,5.31
2023-03-07T06:36:29.741Z,5.51
2023-03-07T06:39:00.788Z,5.60
2023-03-07T06:41:29.820Z,5.64
2023-03-07T06:43:59.331Z,5.94
2023-03-07T06:46:31.888Z,6.65
2023-03-07T06:49:02.441Z,7.82
2023-03-07T06:51:30.981Z,9.01
2023-03-07T06:54:02.789Z,10.09
2023-03-07T06:56:31.481Z,11.01
2023-03-07T06:59:00.447Z,11.77
2023-03-07T07:01:28.842Z,12.41
2023-03-07T07:03:58.277Z,12.91
2023-03-07T07:06:30.777Z,13.52
2023-03-07T07:08:59.021Z,13.93
2023-03-07T07:11:32.092Z,13.64
2023-03-07T07:14:01.594Z,12.84
2023-03-07T07:16:33.870Z,12.09
2023-03-07T07:19:02.245Z,11.38
2023-03-07T07:21:31.763Z,10.67
2023-03-07T07:24:01.003Z,10.07
2023-03-07T07:26:29.540Z,9.77
2023-03-07T07:28:59.667Z,9.61
2023-03-07T07:31:27.950Z,9.46
2023-03-07T07:33:56.473Z,9.28
2023-03-07T07:36:27.176Z,9.06
2023-03-07T07:38:58.018Z,8.81
2023-03-07T07:41:26.617Z,8.53
2023-03-07T07:43:55.945Z,8.19
2023-03-07T07:46:30.069Z,7.80
2023-03-07T07:48:58.955Z,7.43
2023-03-07T07:51:27.808Z,7.28
2023-03-07T07:53:56.252Z,7.51
2023-03-07T07:56:24.565Z,8.10
2023-03-07T07:58:56.121Z,8.87
2023-03-07T08:01:25.168Z,9.37
2023-03-07T08:03:53.981Z,9.67
2023-03-07T08:06:23.593Z,9.99
2023-03-07T08:08:52.046Z,10.28
2023-03-07T08:11:20.580Z,10.39
2023-03-07T08:13:49.603Z,10.53
2023-03-07T08:16:18.740Z,10.84
2023-03-07T08:18:50.888Z,11.21
2023-03-07T08:21:19.354Z,11.35
2023-03-07T08:23:47.702Z,11.53
2023-03-07T08:26:17.893Z,11.79
2023-03-07T08:28:46.761Z,11.90
2023-03-07T08:31:16.419Z,11.78
2023-03-07T08:33:56.457Z,11.71
2023-03-07T08:36:25.619Z,11.83
2023-03-07T08:38:59.396Z,11.99
2023-03-07T08:41:27.729Z,12.17
2023-03-07T08:43:55.975Z,12.07
2023-03-07T08:46:24.781Z,11.79
2023-03-07T08:48:54.280Z,11.45
2023-03-07T08:51:29.103Z,10.96
2023-03-07T08:53:57.943Z,10.67
2023-03-07T08:56:26.336Z,10.70
2023-03-07T08:58:54.847Z,10.90
2023-03-07T09:01:23.248Z,11.21
2023-03-07T09:03:51.565Z,11.44
2023-03-07T09:06:20.398Z,11.65
2023-03-07T09:08:49.127Z,11.69
2023-03-07T09:11:18.637Z,11.52
2023-03-07T09:13:52.520Z,11.36
2023-03-07T09:16:22.440Z,11.24
2023-03-07T09:18:50.893Z,11.42
2023-03-07T09:21:19.911Z,11.43
2023-03-07T09:23:48.733Z,11.51
2023-03-07T09:26:19.087Z,11.70
2023-03-07T09:28:47.475Z,11.74
2023-03-07T09:31:16.320Z,11.53
2023-03-07T09:33:47.142Z,11.26
2023-03-07T09:36:19.768Z,11.27
2023-03-07T09:38:48.502Z,11.41
2023-03-07T09:41:20.450Z,11.44
2023-03-07T09:44:07.425Z,11.55
2023-03-07T09:47:32.738Z,11.80
2023-03-07T09:50:01.761Z,12.02
2023-03-07T09:52:32.545Z,12.34
2023-03-07T09:55:01.913Z,12.74
2023-03-07T09:57:33.937Z,12.93
2023-03-07T10:00:07.360Z,12.89
2023-03-07T10:02:44.466Z,12.56
2023-03-07T10:05:18.951Z,12.27
2023-03-07T10:07:47.338Z,11.92
2023-03-07T10:10:20.281Z,11.58
2023-03-07T10:13:02.000Z,11.40
2023-03-07T10:15:30.461Z,11.40
2023-03-07T10:18:32.607Z,11.24
2023-03-07T10:21:01.169Z,10.93
2023-03-07T10:23:35.165Z,10.59
2023-03-07T10:26:11.039Z,10.49
2023-03-07T10:28:42.462Z,10.60
2023-03-07T10:31:18.392Z,10.66
2023-03-07T10:33:48.383Z,10.44
2023-03-07T10:36:20.615Z,10.14
2023-03-07T10:39:12.541Z,9.98
2023-03-07T10:41:41.227Z,10.01
2023-03-07T10:44:17.665Z,10.11
2023-03-07T10:46:55.766Z,10.18
2023-03-07T10:49:28.811Z,10.39
2023-03-07T10:52:04.801Z,10.61
2023-03-07T10:54:34.224Z,10.78
2023-03-07T10:57:03.197Z,11.07
2023-03-07T10:59:32.444Z,11.40
2023-03-07T11:02:01.234Z,11.60
2023-03-07T11:04:30.606Z,11.58
2023-03-07T11:06:59.711Z,11.46
2023-03-07T11:09:30.802Z,11.32
2023-03-07T11:12:05.182Z,11.18
2023-03-07T11:14:54.180Z,11.18
2023-03-07T11:17:22.544Z,11.28
2023-03-07T11:19:54.881Z,11.43
2023-03-07T11:22:36.813Z,11.63
2023-03-07T11:25:16.136Z,11.54
2023-03-07T11:27:52.101Z,11.18
2023-03-07T11:30:21.223Z,11.08
2023-03-07T11:32:53.425Z,11.29
2023-03-07T11:35:22.996Z,11.46
2023-03-07T11:37:54.241Z,11.30
2023-03-07T11:40:51.086Z,11.01
2023-03-07T11:43:21.610Z,10.79
2023-03-07T11:46:08.925Z,10.76
2023-03-07T11:48:54.505Z,10.73
2023-03-07T11:51:52.010Z,10.64
2023-03-07T11:54:35.381Z,10.58
2023-03-07T11:57:12.156Z,10.58
2023-03-07T11:59:59.108Z,10.71
2023-03-07T12:02:33.779Z,11.02
2023-03-07T12:05:20.310Z,11.23
2023-03-07T12:08:07.102Z,11.18
2023-03-07T12:10:41.291Z,11.19
2023-03-07T12:13:21.691Z,11.30
2023-03-07T12:15:59.938Z,11.40
2023-03-07T12:18:30.933Z,11.36
2023-03-07T12:20:59.218Z,11.32
2023-03-07T12:23:28.535Z,11.28
2023-03-07T12:25:58.134Z,11.26
2023-03-07T12:28:36.311Z,11.09
2023-03-07T12:31:11.847Z,10.93
2023-03-07T12:33:55.427Z,10.77
2023-03-07T12:36:28.450Z,10.62
2023-03-07T12:38:59.779Z,10.53
2023-03-07T12:41:31.394Z,10.49
2023-03-07T12:44:05.921Z,10.50
2023-03-07T12:47:03.804Z,10.56
2023-03-07T12:49:49.661Z,10.64
2023-03-07T12:52:23.283Z,10.60
2023-03-07T12:54:55.682Z,10.53
2023-03-07T12:57:51.126Z,10.46
2023-03-07T13:00:19.948Z,10.39
2023-03-07T13:03:01.780Z,10.32
2023-03-07T13:05:30.597Z,10.26
2023-03-07T13:07:59.970Z,10.25
2023-03-07T13:10:28.556Z,10.24
2023-03-07T13:12:58.766Z,10.26
2023-03-07T13:15:47.230Z,10.31
2023-03-07T13:18:26.735Z,10.40
2023-03-07T13:21:13.923Z,10.45
2023-03-07T13:23:42.219Z,10.53
2023-03-07T13:26:11.094Z,10.56
2023-03-07T13:28:40.735Z,10.53
2023-03-07T13:31:15.516Z,10.48
2023-03-07T13:33:44.836Z,10.45
2023-03-07T13:36:32.643Z,10.42
2023-03-07T13:39:01.305Z,10.40
2023-03-07T13:41:44.102Z,10.37
2023-03-07T13:44:28.812Z,10.32
2023-03-07T13:47:01.683Z,10.25
2023-03-07T13:49:33.337Z,10.20
2023-03-07T13:52:20.491Z,10.16
2023-03-07T13:54:49.218Z,10.13
2023-03-07T13:57:20.895Z,10.11
2023-03-07T13:59:52.175Z,10.09
2023-03-07T14:02:20.665Z,10.07
2023-03-07T14:04:54.769Z,10.05
2023-03-07T14:07:25.283Z,10.03
2023-03-07T14:09:57.574Z,9.98
2023-03-07T14:13:05.446Z,9.93
2023-03-07T14:15:42.892Z,9.87
2023-03-07T14:18:31.320Z,9.83
2023-03-07T14:21:03.036Z,9.78
2023-03-07T14:23:51.453Z,9.74
2023-03-07T14:26:40.976Z,9.69
2023-03-07T14:29:20.712Z,9.67
2023-03-07T14:31:49.485Z,9.63
2023-03-07T14:34:22.455Z,9.60
2023-03-07T14:36:55.404Z,9.55
2023-03-07T14:39:24.092Z,9.51
2023-03-07T14:41:55.528Z,9.48
2023-03-07T14:44:43.931Z,9.44
2023-03-07T14:47:24.577Z,9.39
2023-03-07T14:49:59.140Z,9.35
2023-03-07T14:52:31.449Z,9.30
2023-03-07T14:55:00.312Z,9.26
2023-03-07T14:57:31.950Z,9.23
2023-03-07T15:00:20.264Z,9.20
2023-03-07T15:03:05.074Z,9.16
2023-03-07T15:05:47.402Z,9.10
2023-03-07T15:08:19.799Z,9.05
2023-03-07T15:10:48.802Z,9.01
2023-03-07T15:13:27.117Z,8.98
2023-03-07T15:15:57.671Z,8.97
2023-03-07T15:18:31.486Z,8.94
2023-03-07T15:20:59.814Z,8.91
2023-03-07T15:23:28.362Z,8.87
2023-03-07T15:25:57.788Z,8.86
2023-03-07T15:28:27.923Z,8.84
2023-03-07T15:30:56.349Z,8.82
2023-03-07T15:33:25.511Z,8.80
2023-03-07T15:36:07.106Z,8.79
2023-03-07T15:38:35.787Z,8.78
2023-03-07T15:41:24.650Z,8.77
2023-03-07T15:44:11.400Z,8.75
2023-03-07T15:46:43.292Z,8.73
2023-03-07T15:49:18.197Z,8.72
2023-03-07T15:51:46.360Z,8.73
2023-03-07T15:54:17.486Z,8.70
2023-03-07T15:56:46.463Z,8.55
2023-03-07T15:59:18.889Z,8.37
2023-03-07T16:01:49.655Z,8.21
2023-03-07T16:04:32.053Z,8.08
2023-03-07T16:07:01.148Z,7.98
2023-03-07T16:09:30.869Z,7.97
2023-03-07T16:11:59.143Z,8.02
2023-03-07T16:14:31.068Z,8.00
2023-03-07T16:17:01.221Z,7.92
2023-03-07T16:19:29.986Z,7.84
2023-03-07T16:21:59.293Z,7.74
2023-03-07T16:24:27.675Z,7.62
2023-03-07T16:26:55.956Z,7.52
2023-03-07T16:29:24.259Z,7.42
2023-03-07T16:31:52.678Z,7.28
2023-03-07T16:34:27.242Z,7.11
2023-03-07T16:36:55.687Z,6.93
2023-03-07T16:39:25.276Z,6.74
2023-03-07T16:41:53.545Z,6.59
2023-03-07T16:44:21.964Z,6.50
2023-03-07T16:46:55.976Z,6.46
2023-03-07T16:49:24.338Z,6.39
2023-03-07T16:52:05.271Z,6.26
2023-03-07T16:54:34.960Z,6.02
2023-03-07T16:57:07.362Z,5.80
2023-03-07T16:59:36.149Z,5.54
2023-03-07T17:02:24.816Z,5.31
2023-03-07T17:04:54.057Z,5.15
2023-03-07T17:07:23.007Z,5.09
2023-03-07T17:09:51.771Z,5.07
2023-03-07T17:12:23.024Z,5.10
2023-03-07T17:14:51.462Z,5.12
2023-03-07T17:17:22.275Z,5.13
2023-03-07T17:19:56.440Z,5.11
2023-03-07T17:22:24.878Z,5.10
2023-03-07T17:24:53.190Z,5.09
2023-03-07T17:27:22.154Z,5.10
2023-03-07T17:29:52.968Z,5.11
2023-03-07T17:32:21.498Z,5.10
2023-03-07T17:34:50.488Z,5.10
2023-03-07T17:37:18.953Z,5.14
2023-03-07T17:39:49.987Z,5.20
2023-03-07T17:42:18.254Z,5.29
2023-03-07T17:44:47.363Z,5.37
2023-03-07T17:47:15.667Z,5.43
2023-03-07T17:49:46.369Z,5.47
2023-03-07T17:52:15.671Z,5.52
2023-03-07T17:54:46.101Z,5.58
2023-03-07T17:57:14.641Z,5.60
2023-03-07T17:59:43.585Z,5.62
2023-03-07T18:02:12.192Z,5.66
2023-03-07T18:04:40.733Z,5.70
2023-03-07T18:07:09.034Z,5.76
2023-03-07T18:09:41.167Z,5.82
2023-03-07T18:12:10.065Z,5.87
2023-03-07T18:14:39.124Z,5.91
2023-03-07T18:17:07.411Z,5.92
2023-03-07T18:19:40.759Z,5.95
2023-03-07T18:22:09.378Z,5.94
2023-03-07T18:24:38.022Z,5.93
2023-03-07T18:27:08.855Z,5.93
2023-03-07T18:29:37.316Z,5.92
2023-03-07T18:32:05.741Z,5.91
2023-03-07T18:34:36.346Z,5.90
2023-03-07T18:37:04.816Z,5.91
2023-03-07T18:39:37.325Z,5.92
2023-03-07T18:42:05.745Z,5.94
2023-03-07T18:44:34.048Z,5.96
2023-03-07T18:47:07.640Z,5.96
2023-03-07T18:49:36.845Z,5.98
2023-03-07T18:52:05.407Z,5.99
2023-03-07T18:54:34.516Z,6.00
2023-03-07T18:57:02.764Z,6.01
2023-03-07T18:59:33.450Z,6.00
2023-03-07T19:02:03.304Z,6.00
2023-03-07T19:04:31.831Z,6.01
2023-03-07T19:07:00.810Z,6.05
2023-03-07T19:09:31.449Z,6.09
2023-03-07T19:12:00.592Z,6.13
2023-03-07T19:14:28.909Z,6.15
2023-03-07T19:16:57.524Z,6.17
2023-03-07T19:19:31.750Z,6.19
2023-03-07T19:22:00.036Z,6.21
2023-03-07T19:24:28.343Z,6.25
2023-03-07T19:26:57.874Z,6.27
2023-03-07T19:29:26.112Z,6.30
2023-03-07T19:31:56.544Z,6.31
2023-03-07T19:34:24.958Z,6.35
2023-03-07T19:36:53.196Z,6.41
2023-03-07T19:39:21.545Z,6.47
2023-03-07T19:41:49.743Z,6.53
2023-03-07T19:44:18.088Z,6.59
2023-03-07T19:46:46.708Z,6.64
2023-03-07T19:49:20.760Z,6.70
2023-03-07T19:51:49.258Z,6.74
2023-03-07T19:54:17.634Z,6.79
2023-03-07T19:56:45.906Z,6.83
2023-03-07T19:59:14.112Z,6.84
2023-03-07T20:01:42.496Z,6.84
2023-03-07T20:04:14.824Z,6.88
2023-03-07T20:06:43.496Z,6.92
2023-03-07T20:09:13.020Z,6.94
2023-03-07T20:11:43.502Z,6.94
2023-03-07T20:14:12.143Z,6.92
2023-03-07T20:16:42.790Z,6.94
2023-03-07T20:19:11.016Z,6.96
2023-03-07T20:21:49.973Z,6.90
2023-03-07T20:24:18.828Z,6.79
2023-03-07T20:26:48.155Z,6.63
2023-03-07T20:29:16.412Z,6.48
2023-03-07T20:31:46.171Z,6.35
2023-03-07T20:34:15.057Z,6.26
2023-03-07T20:36:43.339Z,6.19
2023-03-07T20:39:14.658Z,6.12
2023-03-07T20:41:43.009Z,6.01
2023-03-07T20:44:12.882Z,5.91
2023-03-07T20:46:41.607Z,5.82
2023-03-07T20:49:10.806Z,5.75
2023-03-07T20:51:40.930Z,5.69
2023-03-07T20:54:13.094Z,5.63
2023-03-07T20:56:41.271Z,5.58
2023-03-07T20:59:11.751Z,5.53
2023-03-07T21:01:40.997Z,5.47
2023-03-07T21:04:11.491Z,5.43
2023-03-07T21:06:40.759Z,5.39
2023-03-07T21:09:10.335Z,5.36
2023-03-07T21:11:40.595Z,5.33
2023-03-07T21:14:09.760Z,5.32
2023-03-07T21:16:39.029Z,5.31
2023-03-07T21:19:07.533Z,5.31
2023-03-07T21:21:37.103Z,5.32
2023-03-07T21:24:05.475Z,5.32
2023-03-07T21:26:36.470Z,5.32
2023-03-07T21:29:04.859Z,5.32
2023-03-07T21:31:34.392Z,5.31
2023-03-07T21:34:04.205Z,5.30
2023-03-07T21:36:33.120Z,5.27
2023-03-07T21:39:04.572Z,5.23
2023-03-07T21:41:33.488Z,5.19
2023-03-07T21:44:01.900Z,5.15
2023-03-07T21:46:30.739Z,5.12
2023-03-07T21:48:59.419Z,5.11
2023-03-07T21:51:27.724Z,5.10
2023-03-07T21:53:55.999Z,5.08
2023-03-07T21:56:24.299Z,5.06
2023-03-07T21:58:52.613Z,5.03
2023-03-07T22:01:21.741Z,5.01
2023-03-07T22:03:53.509Z,5.02
2023-03-07T22:06:22.021Z,5.00
2023-03-07T22:08:50.213Z,4.98
2023-03-07T22:11:18.666Z,4.96
2023-03-07T22:13:48.937Z,4.93
2023-03-07T22:16:21.810Z,4.90
2023-03-07T22:18:54.805Z,4.86
2023-03-07T22:21:26.474Z,4.82
2023-03-07T22:23:58.301Z,4.79
2023-03-07T22:26:27.417Z,4.77
2023-03-07T22:28:55.848Z,4.75
2023-03-07T22:31:24.264Z,4.73
2023-03-07T22:33:52.782Z,4.71
2023-03-07T22:36:21.497Z,4.69
2023-03-07T22:38:53.346Z,4.68
2023-03-07T22:41:22.038Z,4.69
2023-03-07T22:43:50.808Z,4.69
2023-03-07T22:46:19.373Z,4.69
2023-03-07T22:48:47.761Z,4.69
2023-03-07T22:51:18.034Z,4.71
2023-03-07T22:53:47.112Z,4.75
2023-03-07T22:56:16.286Z,4.80
2023-03-07T22:58:48.443Z,4.84
2023-03-07T23:01:23.237Z,4.89
2023-03-07T23:03:51.750Z,4.93
2023-03-07T23:06:20.555Z,4.95
2023-03-07T23:08:49.859Z,4.95
2023-03-07T23:11:18.825Z,4.94
2023-03-07T23:13:47.676Z,4.91
2023-03-07T23:16:16.829Z,4.90
2023-03-07T23:18:51.059Z,4.90
2023-03-07T23:21:20.578Z,4.91
2023-03-07T23:23:49.240Z,4.91
2023-03-07T23:26:18.464Z,4.90
2023-03-07T23:28:46.668Z,4.88
2023-03-07T23:31:20.121Z,4.89
2023-03-07T23:33:49.332Z,4.91
2023-03-07T23:36:18.611Z,4.91
2023-03-07T23:38:46.982Z,4.90
2023-03-07T23:41:15.818Z,4.89
2023-03-07T23:43:46.492Z,4.88
2023-03-07T23:46:15.036Z,4.86
2023-03-07T23:48:43.904Z,4.81
2023-03-07T23:51:12.436Z,4.75
2023-03-07T23:53:40.798Z,4.69
2023-03-07T23:56:09.260Z,4.66
2023-03-07T23:58:37.935Z,4.63
